TimeEET,TemperatureF,Dew PointF,Humidity,Sea Level PressureIn,VisibilityMPH,Wind Direction,Wind SpeedMPH,Gust SpeedMPH,PrecipitationIn,Events,Conditions,WindDirDegrees,DateUTC
12:50 AM,17.6,15.8,93,30.27,-9999.0,Calm,Calm,-,N/A,,Clear,0,2013-01-01 22:50:00
1:50 AM,15.8,14.0,93,30.30,-9999.0,Calm,Calm,-,N/A,,Clear,0,2013-01-01 23:50:00
2:00 AM,16,16,98,,6,Calm,Calm,,,,,,2013-01-02 00:00:00
2:50 AM,15.8,14.0,93,30.30,-9999.0,Calm,Calm,-,N/A,,Clear,0,2013-01-02 00:50:00
3:50 AM,17.6,14.0,86,30.30,-9999.0,Variable,1.2,-,N/A,,Clear,0,2013-01-02 01:50:00
4:50 AM,15.8,12.2,86,30.30,-9999.0,Calm,Calm,-,N/A,,Clear,0,2013-01-02 02:50:00
5:50 AM,14.0,12.2,93,30.30,-9999.0,Variable,1.2,-,N/A,,Clear,0,2013-01-02 03:50:00
6:50 AM,14.0,12.2,93,30.33,-9999.0,Variable,1.2,-,N/A,,Clear,0,2013-01-02 04:50:00
7:50 AM,21.2,15.8,80,30.33,6.2,Calm,Calm,-,N/A,,Partly Cloudy,0,2013-01-02 05:50:00
8:00 AM,21,17,80,,12,Calm,Calm,,,,Scattered Clouds,,2013-01-02 06:00:00
8:50 AM,24.8,17.6,74,30.36,-9999.0,Variable,2.3,-,N/A,,Clear,0,2013-01-02 06:50:00
9:50 AM,28.4,17.6,64,30.36,-9999.0,Variable,2.3,-,N/A,,Clear,0,2013-01-02 07:50:00
10:50 AM,30.2,17.6,60,30.33,-9999.0,Calm,Calm,-,N/A,,Clear,0,2013-01-02 08:50:00
11:50 AM,33.8,14.0,44,30.33,-9999.0,Variable,2.3,-,N/A,,Clear,0,2013-01-02 09:50:00
12:50 PM,37.4,12.2,36,30.30,-9999.0,Calm,Calm,-,N/A,,Clear,0,2013-01-02 10:50:00
1:50 PM,39.2,10.4,31,30.30,-9999.0,Variable,1.2,-,N/A,,Clear,0,2013-01-02 11:50:00
2:00 PM,39,9,17,,6,South,1.2,,,,,170,2013-01-02 12:00:00
2:50 PM,39.2,12.2,33,30.30,-9999.0,Calm,Calm,-,N/A,,Clear,0,2013-01-02 12:50:00
3:50 PM,33.8,12.2,41,30.30,-9999.0,WSW,3.5,-,N/A,,Clear,240,2013-01-02 13:50:00
4:50 PM,30.2,15.8,55,30.33,-9999.0,Calm,Calm,-,N/A,,Clear,0,2013-01-02 14:50:00
5:50 PM,26.6,17.6,69,30.33,-9999.0,Calm,Calm,-,N/A,,Clear,0,2013-01-02 15:50:00
6:50 PM,24.8,19.4,80,30.36,-9999.0,SSE,3.5,-,N/A,,Clear,160,2013-01-02 16:50:00
7:50 PM,23.0,19.4,86,30.36,-9999.0,Calm,Calm,-,N/A,,Clear,0,2013-01-02 17:50:00
8:00 PM,24,19,73,,6,Calm,Calm,,,,,,2013-01-02 18:00:00
8:50 PM,21.2,17.6,86,30.36,-9999.0,Calm,Calm,-,N/A,,Clear,0,2013-01-02 18:50:00
9:50 PM,21.2,19.4,93,30.36,-9999.0,Calm,Calm,-,N/A,,Clear,0,2013-01-02 19:50:00
10:50 PM,19.4,17.6,93,30.39,-9999.0,Calm,Calm,-,N/A,,Clear,0,2013-01-02 20:50:00
11:50 PM,19.4,15.8,86,30.39,-9999.0,Calm,Calm,-,N/A,,Clear,0,2013-01-02 21:50:00